Time,TemperatureF,DewpointF,PressureIn,WindDirection,WindDirectionDegrees,WindSpeedMPH,WindSpeedGustMPH,Humidity,HourlyPrecipIn,Conditions,Clouds,dailyrainin,SolarRadiationWatts/m^2,SoftwareType,DateUTC
2013-05-23 00:02:00,37.0,28.0,-100.00,SSW,206,7.0,17.0,70,0.00,,,0.00,0.000000,,2013-05-23 07:02:00,
2013-05-23 00:11:00,37.0,28.0,-100.00,SSW,206,7.0,17.0,70,0.00,,,0.00,0.000000,,2013-05-23 07:11:00,
2013-05-23 00:21:00,37.0,28.0,-100.00,SSW,206,7.0,17.0,70,0.00,,,0.00,0.000000,,2013-05-23 07:21:00,
2013-05-23 00:31:00,36.0,29.0,-100.00,SSW,192,8.0,15.0,74,0.00,,,0.00,0.000000,,2013-05-23 07:31:00,
2013-05-23 00:59:00,36.0,29.0,-100.00,SSW,192,8.0,15.0,74,0.00,,,0.00,0.000000,,2013-05-23 07:59:00,
2013-05-23 01:11:00,36.0,29.0,-100.00,SSW,192,8.0,15.0,74,0.00,,,0.00,0.000000,,2013-05-23 08:11:00,
2013-05-23 01:21:00,36.0,29.0,-100.00,SSW,192,8.0,15.0,74,0.00,,,0.00,0.000000,,2013-05-23 08:21:00,
2013-05-23 01:31:00,35.0,29.0,-100.00,SSW,207,8.0,16.0,77,0.00,,,0.00,0.000000,,2013-05-23 08:31:00,
2013-05-23 01:52:00,35.0,29.0,-100.00,SSW,207,8.0,16.0,77,0.00,,,0.00,0.000000,,2013-05-23 08:52:00,
2013-05-23 02:01:00,35.0,29.0,-100.00,SSW,207,8.0,16.0,77,0.00,,,0.00,0.000000,,2013-05-23 09:01:00,
2013-05-23 02:11:00,35.0,29.0,-100.00,SSW,207,8.0,16.0,77,0.00,,,0.00,0.000000,,2013-05-23 09:11:00,
2013-05-23 02:21:00,35.0,29.0,-100.00,SSW,207,8.0,16.0,77,0.00,,,0.00,0.000000,,2013-05-23 09:21:00,
2013-05-23 02:31:00,34.0,28.0,-100.00,SSW,206,7.0,16.0,78,0.00,,,0.00,0.000000,,2013-05-23 09:31:00,
2013-05-23 02:53:00,34.0,28.0,-100.00,SSW,206,7.0,16.0,78,0.00,,,0.00,0.000000,,2013-05-23 09:53:00,
2013-05-23 03:02:00,34.0,28.0,-100.00,SSW,206,7.0,16.0,78,0.00,,,0.00,0.000000,,2013-05-23 10:02:00,
2013-05-23 03:12:00,34.0,28.0,-100.00,SSW,206,7.0,16.0,78,0.00,,,0.00,0.000000,,2013-05-23 10:12:00,
2013-05-23 03:22:00,34.0,28.0,-100.00,SSW,206,7.0,16.0,78,0.00,,,0.00,0.000000,,2013-05-23 10:22:00,
2013-05-23 03:31:00,34.0,29.0,-100.00,SSW,198,7.0,15.0,81,0.00,,,0.00,0.000000,,2013-05-23 10:31:00,
2013-05-23 03:52:00,34.0,29.0,-100.00,SSW,198,7.0,15.0,81,0.00,,,0.00,0.000000,,2013-05-23 10:52:00,
2013-05-23 04:02:00,34.0,29.0,-100.00,SSW,198,7.0,15.0,81,0.00,,,0.00,0.000000,,2013-05-23 11:02:00,
2013-05-23 04:11:00,34.0,29.0,-100.00,SSW,198,7.0,15.0,81,0.00,,,0.00,0.000000,,2013-05-23 11:11:00,
2013-05-23 04:21:00,34.0,29.0,-100.00,SSW,198,7.0,15.0,81,0.00,,,0.00,0.000000,,2013-05-23 11:21:00,
2013-05-23 04:31:00,33.0,28.0,-100.00,SSW,192,7.0,14.0,83,0.00,,,0.00,0.000000,,2013-05-23 11:31:00,
2013-05-23 04:52:00,33.0,28.0,-100.00,SSW,192,7.0,14.0,83,0.00,,,0.00,0.000000,,2013-05-23 11:52:00,
2013-05-23 05:01:00,33.0,28.0,-100.00,SSW,192,7.0,14.0,83,0.00,,,0.00,0.000000,,2013-05-23 12:01:00,
2013-05-23 05:11:00,33.0,28.0,-100.00,SSW,192,7.0,14.0,83,0.00,,,0.00,0.000000,,2013-05-23 12:11:00,
2013-05-23 05:21:00,33.0,28.0,-100.00,SSW,192,7.0,14.0,83,0.00,,,0.00,0.000000,,2013-05-23 12:21:00,
2013-05-23 05:31:00,33.0,28.0,-100.00,South,189,7.0,14.0,82,0.00,,,0.00,0.000000,,2013-05-23 12:31:00,
2013-05-23 05:52:00,33.0,28.0,-100.00,South,189,7.0,14.0,82,0.00,,,0.00,0.000000,,2013-05-23 12:52:00,
2013-05-23 06:01:00,33.0,28.0,-100.00,South,189,7.0,14.0,82,0.00,,,0.00,0.000000,,2013-05-23 13:01:00,
2013-05-23 06:11:00,33.0,28.0,-100.00,South,189,7.0,14.0,82,0.00,,,0.00,0.000000,,2013-05-23 13:11:00,
2013-05-23 06:21:00,33.0,28.0,-100.00,South,189,7.0,14.0,82,0.00,,,0.00,0.000000,,2013-05-23 13:21:00,
2013-05-23 06:31:00,34.0,29.0,-100.00,SSW,196,6.0,11.0,82,0.00,,,0.00,30.000000,,2013-05-23 13:31:00,
2013-05-23 06:52:00,34.0,29.0,-100.00,SSW,196,6.0,11.0,82,0.00,,,0.00,30.000000,,2013-05-23 13:52:00,
2013-05-23 07:01:00,34.0,29.0,-100.00,SSW,196,6.0,11.0,82,0.00,,,0.00,30.000000,,2013-05-23 14:01:00,
2013-05-23 07:11:00,34.0,29.0,-100.00,SSW,196,6.0,11.0,82,0.00,,,0.00,30.000000,,2013-05-23 14:11:00,
2013-05-23 07:21:00,34.0,29.0,-100.00,SSW,196,6.0,11.0,82,0.00,,,0.00,30.000000,,2013-05-23 14:21:00,
2013-05-23 07:31:00,40.0,31.0,-100.00,SSW,196,5.0,12.0,70,0.00,,,0.00,192.000000,,2013-05-23 14:31:00,
2013-05-23 07:52:00,40.0,31.0,-100.00,SSW,196,5.0,12.0,70,0.00,,,0.00,192.000000,,2013-05-23 14:52:00,
2013-05-23 08:01:00,40.0,31.0,-100.00,SSW,196,5.0,12.0,70,0.00,,,0.00,192.000000,,2013-05-23 15:01:00,
2013-05-23 08:11:00,40.0,31.0,-100.00,SSW,196,5.0,12.0,70,0.00,,,0.00,192.000000,,2013-05-23 15:11:00,
2013-05-23 08:21:00,40.0,31.0,-100.00,SSW,196,5.0,12.0,70,0.00,,,0.00,192.000000,,2013-05-23 15:21:00,
2013-05-23 08:31:00,43.0,30.0,-100.00,South,184,7.0,12.0,60,0.00,,,0.00,441.000000,,2013-05-23 15:31:00,
2013-05-23 08:53:00,43.0,30.0,-100.00,South,184,7.0,12.0,60,0.00,,,0.00,441.000000,,2013-05-23 15:53:00,
2013-05-23 09:03:00,43.0,30.0,-100.00,South,184,7.0,12.0,60,0.00,,,0.00,441.000000,,2013-05-23 16:03:00,
2013-05-23 09:12:00,43.0,30.0,-100.00,South,184,7.0,12.0,60,0.00,,,0.00,441.000000,,2013-05-23 16:12:00,
2013-05-23 09:22:00,43.0,30.0,-100.00,South,184,7.0,12.0,60,0.00,,,0.00,441.000000,,2013-05-23 16:22:00,
2013-05-23 09:31:00,45.0,30.0,-100.00,South,184,6.0,13.0,55,0.00,,,0.00,505.000000,,2013-05-23 16:31:00,
2013-05-23 09:52:00,45.0,30.0,-100.00,South,184,6.0,13.0,55,0.00,,,0.00,505.000000,,2013-05-23 16:52:00,
2013-05-23 10:03:00,45.0,30.0,-100.00,South,184,6.0,13.0,55,0.00,,,0.00,505.000000,,2013-05-23 17:03:00,
2013-05-23 10:11:00,45.0,30.0,-100.00,South,184,6.0,13.0,55,0.00,,,0.00,505.000000,,2013-05-23 17:11:00,
2013-05-23 10:22:00,45.0,30.0,-100.00,South,184,6.0,13.0,55,0.00,,,0.00,505.000000,,2013-05-23 17:22:00,
2013-05-23 10:31:00,49.0,30.0,-100.00,SSE,167,6.0,14.0,48,0.00,,,0.00,759.000000,,2013-05-23 17:31:00,
2013-05-23 10:52:00,49.0,30.0,-100.00,SSE,167,6.0,14.0,48,0.00,,,0.00,759.000000,,2013-05-23 17:52:00,
2013-05-23 11:01:00,49.0,30.0,-100.00,SSE,167,6.0,14.0,48,0.00,,,0.00,759.000000,,2013-05-23 18:01:00,
2013-05-23 11:11:00,49.0,30.0,-100.00,SSE,167,6.0,14.0,48,0.00,,,0.00,759.000000,,2013-05-23 18:11:00,
2013-05-23 11:21:00,49.0,30.0,-100.00,SSE,167,6.0,14.0,48,0.00,,,0.00,759.000000,,2013-05-23 18:21:00,
2013-05-23 11:31:00,51.0,29.0,-100.00,SSW,209,5.0,13.0,42,0.00,,,0.00,880.000000,,2013-05-23 18:31:00,
2013-05-23 11:52:00,51.0,29.0,-100.00,SSW,209,5.0,13.0,42,0.00,,,0.00,880.000000,,2013-05-23 18:52:00,
2013-05-23 12:01:00,51.0,29.0,-100.00,SSW,209,5.0,13.0,42,0.00,,,0.00,880.000000,,2013-05-23 19:01:00,
2013-05-23 12:11:00,51.0,29.0,-100.00,SSW,209,5.0,13.0,42,0.00,,,0.00,880.000000,,2013-05-23 19:11:00,
2013-05-23 12:21:00,51.0,29.0,-100.00,SSW,209,5.0,13.0,42,0.00,,,0.00,880.000000,,2013-05-23 19:21:00,
2013-05-23 12:31:00,53.0,31.0,-100.00,SE,138,5.0,10.0,42,0.00,,,0.00,676.000000,,2013-05-23 19:31:00,
2013-05-23 12:52:00,53.0,31.0,-100.00,SE,138,5.0,10.0,42,0.00,,,0.00,676.000000,,2013-05-23 19:52:00,
2013-05-23 13:02:00,53.0,31.0,-100.00,SE,138,5.0,10.0,42,0.00,,,0.00,676.000000,,2013-05-23 20:02:00,
2013-05-23 13:11:00,53.0,31.0,-100.00,SE,138,5.0,10.0,42,0.00,,,0.00,676.000000,,2013-05-23 20:11:00,
2013-05-23 13:21:00,53.0,31.0,-100.00,SE,138,5.0,10.0,42,0.00,,,0.00,676.000000,,2013-05-23 20:21:00,
2013-05-23 13:31:00,54.0,29.0,-100.00,West,263,7.0,13.0,38,0.00,,,0.00,731.000000,,2013-05-23 20:31:00,
2013-05-23 13:52:00,54.0,29.0,-100.00,West,263,7.0,13.0,38,0.00,,,0.00,731.000000,,2013-05-23 20:52:00,
2013-05-23 14:01:00,54.0,29.0,-100.00,West,263,7.0,13.0,38,0.00,,,0.00,731.000000,,2013-05-23 21:01:00,
2013-05-23 14:11:00,54.0,29.0,-100.00,West,263,7.0,13.0,38,0.00,,,0.00,731.000000,,2013-05-23 21:11:00,
2013-05-23 14:21:00,54.0,29.0,-100.00,West,263,7.0,13.0,38,0.00,,,0.00,731.000000,,2013-05-23 21:21:00,
2013-05-23 14:31:00,55.0,29.0,-100.00,WNW,287,6.0,16.0,37,0.00,,,0.00,658.000000,,2013-05-23 21:31:00,
2013-05-23 14:53:00,55.0,29.0,-100.00,WNW,287,6.0,16.0,37,0.00,,,0.00,658.000000,,2013-05-23 21:53:00,
2013-05-23 15:02:00,55.0,29.0,-100.00,WNW,287,6.0,16.0,37,0.00,,,0.00,658.000000,,2013-05-23 22:02:00,
2013-05-23 15:12:00,55.0,29.0,-100.00,WNW,287,6.0,16.0,37,0.00,,,0.00,658.000000,,2013-05-23 22:12:00,
2013-05-23 15:22:00,55.0,29.0,-100.00,WNW,287,6.0,16.0,37,0.00,,,0.00,658.000000,,2013-05-23 22:22:00,
2013-05-23 15:31:00,55.0,31.0,-100.00,WSW,239,6.0,18.0,39,0.00,,,0.00,830.000000,,2013-05-23 22:31:00,
2013-05-23 15:52:00,55.0,31.0,-100.00,WSW,239,6.0,18.0,39,0.00,,,0.00,830.000000,,2013-05-23 22:52:00,
2013-05-23 16:01:00,55.0,31.0,-100.00,WSW,239,6.0,18.0,39,0.00,,,0.00,830.000000,,2013-05-23 23:01:00,
2013-05-23 16:11:00,55.0,31.0,-100.00,WSW,239,6.0,18.0,39,0.00,,,0.00,830.000000,,2013-05-23 23:11:00,
2013-05-23 16:21:00,55.0,31.0,-100.00,WSW,239,6.0,18.0,39,0.00,,,0.00,830.000000,,2013-05-23 23:21:00,
2013-05-23 16:31:00,52.0,28.0,-100.00,WNW,282,7.0,17.0,40,0.00,,,0.00,572.000000,,2013-05-23 23:31:00,
2013-05-23 16:52:00,52.0,28.0,-100.00,WNW,282,7.0,17.0,40,0.00,,,0.00,572.000000,,2013-05-23 23:52:00,
2013-05-23 17:01:00,52.0,28.0,-100.00,WNW,282,7.0,17.0,40,0.00,,,0.00,572.000000,,2013-05-24 00:01:00,
2013-05-23 17:11:00,52.0,28.0,-100.00,WNW,282,7.0,17.0,40,0.00,,,0.00,572.000000,,2013-05-24 00:11:00,
2013-05-23 17:21:00,52.0,28.0,-100.00,WNW,282,7.0,17.0,40,0.00,,,0.00,572.000000,,2013-05-24 00:21:00,
2013-05-23 17:31:00,50.0,29.0,-100.00,WSW,246,5.0,13.0,44,0.00,,,0.00,324.000000,,2013-05-24 00:31:00,
2013-05-23 17:52:00,50.0,29.0,-100.00,WSW,246,5.0,13.0,44,0.00,,,0.00,324.000000,,2013-05-24 00:52:00,
2013-05-23 18:01:00,50.0,29.0,-100.00,WSW,246,5.0,13.0,44,0.00,,,0.00,324.000000,,2013-05-24 01:01:00,
2013-05-23 18:12:00,50.0,29.0,-100.00,WSW,246,5.0,13.0,44,0.00,,,0.00,324.000000,,2013-05-24 01:12:00,
2013-05-23 18:22:00,50.0,29.0,-100.00,WSW,246,5.0,13.0,44,0.00,,,0.00,324.000000,,2013-05-24 01:22:00,
2013-05-23 18:31:00,46.0,29.0,-100.00,SW,226,6.0,14.0,51,0.00,,,0.00,177.000000,,2013-05-24 01:31:00,
2013-05-23 18:52:00,46.0,29.0,-100.00,SW,226,6.0,14.0,51,0.00,,,0.00,177.000000,,2013-05-24 01:52:00,
2013-05-23 19:01:00,46.0,29.0,-100.00,SW,226,6.0,14.0,51,0.00,,,0.00,177.000000,,2013-05-24 02:01:00,
2013-05-23 19:11:00,46.0,29.0,-100.00,SW,226,6.0,14.0,51,0.00,,,0.00,177.000000,,2013-05-24 02:11:00,
2013-05-23 19:21:00,46.0,29.0,-100.00,SW,226,6.0,14.0,51,0.00,,,0.00,177.000000,,2013-05-24 02:21:00,
2013-05-23 19:31:00,44.0,28.0,-100.00,WSW,240,6.0,15.0,53,0.00,,,0.00,61.000000,,2013-05-24 02:31:00,
2013-05-23 19:52:00,44.0,28.0,-100.00,WSW,240,6.0,15.0,53,0.00,,,0.00,61.000000,,2013-05-24 02:52:00,
2013-05-23 20:02:00,44.0,28.0,-100.00,WSW,240,6.0,15.0,53,0.00,,,0.00,61.000000,,2013-05-24 03:02:00,
2013-05-23 20:11:00,44.0,28.0,-100.00,WSW,240,6.0,15.0,53,0.00,,,0.00,61.000000,,2013-05-24 03:11:00,
2013-05-23 20:21:00,44.0,28.0,-100.00,WSW,240,6.0,15.0,53,0.00,,,0.00,61.000000,,2013-05-24 03:21:00,
2013-05-23 20:31:00,43.0,29.0,-100.00,SW,220,4.0,13.0,58,0.00,,,-99.99,9.000000,,2013-05-24 03:31:00,
2013-05-23 20:53:00,43.0,29.0,-100.00,SW,220,4.0,13.0,58,0.00,,,-99.99,9.000000,,2013-05-24 03:53:00,
2013-05-23 21:03:00,43.0,29.0,-100.00,SW,220,4.0,13.0,58,0.00,,,-99.99,9.000000,,2013-05-24 04:03:00,
2013-05-23 21:12:00,43.0,29.0,-100.00,SW,220,4.0,13.0,58,0.00,,,-99.99,9.000000,,2013-05-24 04:12:00,
2013-05-23 21:22:00,43.0,29.0,-100.00,SW,220,4.0,13.0,58,0.00,,,-99.99,9.000000,,2013-05-24 04:22:00,
2013-05-23 21:31:00,41.0,32.0,-100.00,SSW,208,3.0,7.0,71,0.00,,,0.00,0.000000,,2013-05-24 04:31:00,
2013-05-23 21:53:00,41.0,32.0,-100.00,SSW,208,3.0,7.0,71,0.00,,,0.00,0.000000,,2013-05-24 04:53:00,
2013-05-23 22:02:00,41.0,32.0,-100.00,SSW,208,3.0,7.0,71,0.00,,,0.00,0.000000,,2013-05-24 05:02:00,
2013-05-23 22:12:00,41.0,32.0,-100.00,SSW,208,3.0,7.0,71,0.00,,,0.00,0.000000,,2013-05-24 05:12:00,
2013-05-23 22:22:00,41.0,32.0,-100.00,SSW,208,3.0,7.0,71,0.00,,,0.00,0.000000,,2013-05-24 05:22:00,
2013-05-23 22:31:00,39.0,34.0,-100.00,SSW,193,6.0,13.0,83,0.01,,,0.01,0.000000,,2013-05-24 05:31:00,
2013-05-23 22:52:00,39.0,34.0,-100.00,SSW,193,6.0,13.0,83,0.01,,,0.01,0.000000,,2013-05-24 05:52:00,
2013-05-23 23:01:00,39.0,34.0,-100.00,SSW,193,6.0,13.0,83,0.01,,,0.01,0.000000,,2013-05-24 06:01:00,
2013-05-23 23:12:00,39.0,34.0,-100.00,SSW,193,6.0,13.0,83,0.01,,,0.01,0.000000,,2013-05-24 06:12:00,
2013-05-23 23:21:00,39.0,34.0,-100.00,SSW,193,6.0,13.0,83,0.01,,,0.01,0.000000,,2013-05-24 06:21:00,
2013-05-23 23:31:00,38.0,34.0,-100.00,SSW,211,4.0,10.0,84,0.00,,,0.01,0.000000,,2013-05-24 06:31:00,
2013-05-23 23:52:00,38.0,34.0,-100.00,SSW,211,4.0,10.0,84,0.00,,,0.01,0.000000,,2013-05-24 06:52:00,